sensor_id;sensor_type;location;lat;lon;timestamp;P1;durP1;ratioP1;P2;durP2;ratioP2
74124;SDS011;62475;52.192;5.396;2022-08-04T00:00:07;5.43;;;2.35;;
74124;SDS011;62475;52.192;5.396;2022-08-04T00:05:09;6.03;;;2.53;;
74124;SDS011;62475;52.192;5.396;2022-08-04T00:07:53;5.53;;;2.45;;
74124;SDS011;62475;52.192;5.396;2022-08-04T00:10:26;5.38;;;2.58;;
74124;SDS011;62475;52.192;5.396;2022-08-04T00:12:53;6.35;;;2.45;;
74124;SDS011;62475;52.192;5.396;2022-08-04T00:15:20;4.60;;;2.20;;
74124;SDS011;62475;52.192;5.396;2022-08-04T00:20:23;6.97;;;2.58;;
74124;SDS011;62475;52.192;5.396;2022-08-04T00:22:54;6.13;;;2.63;;
74124;SDS011;62475;52.192;5.396;2022-08-04T00:25:22;6.32;;;2.10;;
74124;SDS011;62475;52.192;5.396;2022-08-04T00:27:48;7.35;;;2.70;;
74124;SDS011;62475;52.192;5.396;2022-08-04T00:30:14;11.00;;;2.65;;
74124;SDS011;62475;52.192;5.396;2022-08-04T00:32:40;5.80;;;2.53;;
74124;SDS011;62475;52.192;5.396;2022-08-04T00:35:06;6.63;;;2.35;;
74124;SDS011;62475;52.192;5.396;2022-08-04T00:37:33;6.95;;;2.70;;
74124;SDS011;62475;52.192;5.396;2022-08-04T00:40:01;7.65;;;2.30;;
74124;SDS011;62475;52.192;5.396;2022-08-04T00:42:41;8.73;;;2.92;;
74124;SDS011;62475;52.192;5.396;2022-08-04T00:48:40;6.78;;;2.83;;
74124;SDS011;62475;52.192;5.396;2022-08-04T01:02:35;6.57;;;3.75;;
74124;SDS011;62475;52.192;5.396;2022-08-04T01:16:39;6.00;;;3.30;;
74124;SDS011;62475;52.192;5.396;2022-08-04T01:19:21;6.63;;;3.60;;
74124;SDS011;62475;52.192;5.396;2022-08-04T01:24:50;8.05;;;3.30;;
74124;SDS011;62475;52.192;5.396;2022-08-04T01:30:44;8.32;;;3.40;;
74124;SDS011;62475;52.192;5.396;2022-08-04T01:33:13;8.27;;;3.78;;
74124;SDS011;62475;52.192;5.396;2022-08-04T01:35:50;8.00;;;4.00;;
74124;SDS011;62475;52.192;5.396;2022-08-04T01:38:24;7.75;;;3.42;;
74124;SDS011;62475;52.192;5.396;2022-08-04T01:40:54;9.25;;;3.55;;
74124;SDS011;62475;52.192;5.396;2022-08-04T01:43:21;6.63;;;3.60;;
74124;SDS011;62475;52.192;5.396;2022-08-04T01:45:54;8.13;;;3.50;;
74124;SDS011;62475;52.192;5.396;2022-08-04T01:48:22;7.10;;;3.50;;
74124;SDS011;62475;52.192;5.396;2022-08-04T01:50:49;6.28;;;2.97;;
74124;SDS011;62475;52.192;5.396;2022-08-04T01:53:17;8.68;;;3.40;;
74124;SDS011;62475;52.192;5.396;2022-08-04T01:55:47;9.52;;;3.63;;
74124;SDS011;62475;52.192;5.396;2022-08-04T01:58:15;8.93;;;4.20;;
74124;SDS011;62475;52.192;5.396;2022-08-04T02:00:46;8.23;;;3.22;;
74124;SDS011;62475;52.192;5.396;2022-08-04T02:03:19;8.40;;;3.10;;
74124;SDS011;62475;52.192;5.396;2022-08-04T02:05:46;7.57;;;3.35;;
74124;SDS011;62475;52.192;5.396;2022-08-04T02:11:00;8.75;;;3.58;;
74124;SDS011;62475;52.192;5.396;2022-08-04T02:13:35;7.57;;;3.97;;
74124;SDS011;62475;52.192;5.396;2022-08-04T02:16:08;6.35;;;3.50;;
74124;SDS011;62475;52.192;5.396;2022-08-04T02:22:00;9.38;;;4.05;;
74124;SDS011;62475;52.192;5.396;2022-08-04T02:24:31;8.70;;;4.03;;
74124;SDS011;62475;52.192;5.396;2022-08-04T02:26:56;10.27;;;4.15;;
74124;SDS011;62475;52.192;5.396;2022-08-04T02:32:16;8.32;;;4.18;;
74124;SDS011;62475;52.192;5.396;2022-08-04T02:34:59;8.07;;;4.82;;
74124;SDS011;62475;52.192;5.396;2022-08-04T02:37:26;8.88;;;4.68;;
74124;SDS011;62475;52.192;5.396;2022-08-04T02:39:55;8.65;;;4.55;;
74124;SDS011;62475;52.192;5.396;2022-08-04T02:42:23;6.05;;;3.80;;
74124;SDS011;62475;52.192;5.396;2022-08-04T02:44:50;7.18;;;4.30;;
74124;SDS011;62475;52.192;5.396;2022-08-04T02:47:16;11.00;;;4.10;;
74124;SDS011;62475;52.192;5.396;2022-08-04T02:49:44;6.72;;;4.13;;
74124;SDS011;62475;52.192;5.396;2022-08-04T02:52:11;8.43;;;4.68;;
74124;SDS011;62475;52.192;5.396;2022-08-04T02:54:39;8.55;;;4.07;;
74124;SDS011;62475;52.192;5.396;2022-08-04T02:57:10;7.78;;;4.07;;
74124;SDS011;62475;52.192;5.396;2022-08-04T03:00:23;9.05;;;4.05;;
74124;SDS011;62475;52.192;5.396;2022-08-04T03:03:01;6.53;;;3.80;;
74124;SDS011;62475;52.192;5.396;2022-08-04T03:05:49;7.38;;;3.60;;
74124;SDS011;62475;52.192;5.396;2022-08-04T03:19:42;10.52;;;3.95;;
74124;SDS011;62475;52.192;5.396;2022-08-04T03:30:58;7.07;;;3.90;;
74124;SDS011;62475;52.192;5.396;2022-08-04T03:39:13;6.78;;;3.58;;
74124;SDS011;62475;52.192;5.396;2022-08-04T03:56:05;7.65;;;3.95;;
74124;SDS011;62475;52.192;5.396;2022-08-04T04:04:37;8.13;;;4.80;;
74124;SDS011;62475;52.192;5.396;2022-08-04T04:07:16;7.28;;;4.20;;
74124;SDS011;62475;52.192;5.396;2022-08-04T04:09:56;7.05;;;3.97;;
74124;SDS011;62475;52.192;5.396;2022-08-04T04:26:54;8.30;;;3.83;;
74124;SDS011;62475;52.192;5.396;2022-08-04T04:32:23;7.20;;;4.28;;
74124;SDS011;62475;52.192;5.396;2022-08-04T04:38:07;7.60;;;3.95;;
74124;SDS011;62475;52.192;5.396;2022-08-04T04:46:42;6.97;;;3.60;;
74124;SDS011;62475;52.192;5.396;2022-08-04T04:51:57;7.18;;;3.28;;
74124;SDS011;62475;52.192;5.396;2022-08-04T04:54:33;6.30;;;3.63;;
74124;SDS011;62475;52.192;5.396;2022-08-04T04:59:38;7.78;;;4.82;;
74124;SDS011;62475;52.192;5.396;2022-08-04T05:07:39;10.57;;;5.28;;
74124;SDS011;62475;52.192;5.396;2022-08-04T05:13:30;8.10;;;4.15;;
74124;SDS011;62475;52.192;5.396;2022-08-04T05:16:23;6.97;;;4.30;;
74124;SDS011;62475;52.192;5.396;2022-08-04T05:18:51;10.10;;;4.50;;
74124;SDS011;62475;52.192;5.396;2022-08-04T05:21:41;9.80;;;4.40;;
74124;SDS011;62475;52.192;5.396;2022-08-04T05:24:11;9.50;;;4.57;;
74124;SDS011;62475;52.192;5.396;2022-08-04T05:26:42;6.53;;;4.25;;
74124;SDS011;62475;52.192;5.396;2022-08-04T05:29:10;7.40;;;4.30;;
74124;SDS011;62475;52.192;5.396;2022-08-04T05:31:43;8.68;;;4.47;;
74124;SDS011;62475;52.192;5.396;2022-08-04T05:34:20;8.05;;;4.32;;
74124;SDS011;62475;52.192;5.396;2022-08-04T05:36:51;11.43;;;4.57;;
74124;SDS011;62475;52.192;5.396;2022-08-04T05:39:30;8.93;;;4.65;;
74124;SDS011;62475;52.192;5.396;2022-08-04T05:42:12;8.07;;;4.45;;
74124;SDS011;62475;52.192;5.396;2022-08-04T05:44:38;7.32;;;4.00;;
74124;SDS011;62475;52.192;5.396;2022-08-04T05:47:06;12.40;;;4.70;;
74124;SDS011;62475;52.192;5.396;2022-08-04T05:52:02;8.35;;;4.20;;
74124;SDS011;62475;52.192;5.396;2022-08-04T05:54:30;9.10;;;4.20;;
74124;SDS011;62475;52.192;5.396;2022-08-04T05:56:57;8.82;;;4.85;;
74124;SDS011;62475;52.192;5.396;2022-08-04T05:59:24;10.20;;;4.97;;
74124;SDS011;62475;52.192;5.396;2022-08-04T06:01:50;8.07;;;4.28;;
74124;SDS011;62475;52.192;5.396;2022-08-04T06:06:45;9.60;;;4.40;;
74124;SDS011;62475;52.192;5.396;2022-08-04T06:09:12;8.60;;;4.55;;
74124;SDS011;62475;52.192;5.396;2022-08-04T06:11:37;10.50;;;4.10;;
74124;SDS011;62475;52.192;5.396;2022-08-04T06:14:06;10.13;;;4.00;;
74124;SDS011;62475;52.192;5.396;2022-08-04T06:16:35;7.70;;;3.65;;
74124;SDS011;62475;52.192;5.396;2022-08-04T06:19:04;7.80;;;4.10;;
74124;SDS011;62475;52.192;5.396;2022-08-04T06:23:57;10.13;;;3.38;;
74124;SDS011;62475;52.192;5.396;2022-08-04T06:26:24;7.60;;;4.15;;
74124;SDS011;62475;52.192;5.396;2022-08-04T06:28:51;8.38;;;3.50;;
74124;SDS011;62475;52.192;5.396;2022-08-04T06:31:19;9.25;;;3.33;;
74124;SDS011;62475;52.192;5.396;2022-08-04T06:34:13;5.97;;;3.15;;
74124;SDS011;62475;52.192;5.396;2022-08-04T06:36:40;13.40;;;4.07;;
74124;SDS011;62475;52.192;5.396;2022-08-04T06:39:07;7.53;;;3.35;;
74124;SDS011;62475;52.192;5.396;2022-08-04T06:41:34;9.07;;;3.65;;
74124;SDS011;62475;52.192;5.396;2022-08-04T06:44:01;5.38;;;3.10;;
74124;SDS011;62475;52.192;5.396;2022-08-04T06:46:29;5.43;;;3.47;;
74124;SDS011;62475;52.192;5.396;2022-08-04T06:48:55;8.52;;;3.80;;
74124;SDS011;62475;52.192;5.396;2022-08-04T06:51:22;7.95;;;3.35;;
74124;SDS011;62475;52.192;5.396;2022-08-04T06:53:48;6.10;;;3.58;;
74124;SDS011;62475;52.192;5.396;2022-08-04T06:56:14;8.27;;;3.67;;
74124;SDS011;62475;52.192;5.396;2022-08-04T06:58:41;11.43;;;4.18;;
74124;SDS011;62475;52.192;5.396;2022-08-04T07:01:09;6.47;;;3.22;;
74124;SDS011;62475;52.192;5.396;2022-08-04T07:03:35;6.13;;;3.00;;
74124;SDS011;62475;52.192;5.396;2022-08-04T07:06:01;6.95;;;2.92;;
74124;SDS011;62475;52.192;5.396;2022-08-04T07:08:26;11.02;;;3.72;;
74124;SDS011;62475;52.192;5.396;2022-08-04T07:10:52;4.25;;;2.50;;
74124;SDS011;62475;52.192;5.396;2022-08-04T07:13:19;6.55;;;2.67;;
74124;SDS011;62475;52.192;5.396;2022-08-04T07:15:46;4.07;;;2.33;;
74124;SDS011;62475;52.192;5.396;2022-08-04T07:18:12;4.82;;;2.50;;
74124;SDS011;62475;52.192;5.396;2022-08-04T07:20:41;4.50;;;2.35;;
74124;SDS011;62475;52.192;5.396;2022-08-04T07:23:08;6.90;;;3.25;;
74124;SDS011;62475;52.192;5.396;2022-08-04T07:25:36;6.93;;;3.10;;
74124;SDS011;62475;52.192;5.396;2022-08-04T07:28:01;7.32;;;2.28;;
74124;SDS011;62475;52.192;5.396;2022-08-04T07:30:27;7.68;;;3.72;;
74124;SDS011;62475;52.192;5.396;2022-08-04T07:32:54;5.50;;;2.47;;
74124;SDS011;62475;52.192;5.396;2022-08-04T07:35:19;4.20;;;2.17;;
74124;SDS011;62475;52.192;5.396;2022-08-04T07:37:46;7.18;;;2.60;;
74124;SDS011;62475;52.192;5.396;2022-08-04T07:40:11;10.18;;;2.58;;
74124;SDS011;62475;52.192;5.396;2022-08-04T07:42:37;4.35;;;2.15;;
74124;SDS011;62475;52.192;5.396;2022-08-04T07:45:03;7.28;;;2.47;;
74124;SDS011;62475;52.192;5.396;2022-08-04T07:47:28;6.50;;;2.20;;
74124;SDS011;62475;52.192;5.396;2022-08-04T07:49:54;4.93;;;2.13;;
74124;SDS011;62475;52.192;5.396;2022-08-04T07:52:20;10.73;;;2.67;;
74124;SDS011;62475;52.192;5.396;2022-08-04T07:54:47;4.63;;;2.55;;
74124;SDS011;62475;52.192;5.396;2022-08-04T07:57:15;5.45;;;2.45;;
74124;SDS011;62475;52.192;5.396;2022-08-04T07:59:42;10.25;;;3.22;;
74124;SDS011;62475;52.192;5.396;2022-08-04T08:02:08;4.75;;;2.40;;
74124;SDS011;62475;52.192;5.396;2022-08-04T08:04:34;6.32;;;2.70;;
74124;SDS011;62475;52.192;5.396;2022-08-04T08:06:59;8.30;;;2.78;;
74124;SDS011;62475;52.192;5.396;2022-08-04T08:09:25;5.63;;;2.40;;
74124;SDS011;62475;52.192;5.396;2022-08-04T08:11:51;5.90;;;2.55;;
74124;SDS011;62475;52.192;5.396;2022-08-04T08:14:17;5.00;;;2.72;;
74124;SDS011;62475;52.192;5.396;2022-08-04T08:16:44;6.50;;;2.63;;
74124;SDS011;62475;52.192;5.396;2022-08-04T08:19:10;9.95;;;2.72;;
74124;SDS011;62475;52.192;5.396;2022-08-04T08:21:36;7.05;;;2.10;;
74124;SDS011;62475;52.192;5.396;2022-08-04T08:24:01;7.50;;;2.40;;
74124;SDS011;62475;52.192;5.396;2022-08-04T08:26:27;5.25;;;2.28;;
74124;SDS011;62475;52.192;5.396;2022-08-04T08:28:53;3.83;;;2.17;;
74124;SDS011;62475;52.192;5.396;2022-08-04T08:31:19;8.63;;;2.50;;
74124;SDS011;62475;52.192;5.396;2022-08-04T08:33:44;4.55;;;2.08;;
74124;SDS011;62475;52.192;5.396;2022-08-04T08:39:11;6.75;;;2.15;;
74124;SDS011;62475;52.192;5.396;2022-08-04T08:42:21;6.15;;;2.25;;
74124;SDS011;62475;52.192;5.396;2022-08-04T08:45:13;2.90;;;1.45;;
74124;SDS011;62475;52.192;5.396;2022-08-04T08:50:49;4.82;;;1.80;;
74124;SDS011;62475;52.192;5.396;2022-08-04T08:53:26;6.68;;;1.88;;
74124;SDS011;62475;52.192;5.396;2022-08-04T08:56:18;4.35;;;1.40;;
74124;SDS011;62475;52.192;5.396;2022-08-04T08:59:04;7.40;;;1.98;;
74124;SDS011;62475;52.192;5.396;2022-08-04T09:14:59;4.03;;;1.55;;
74124;SDS011;62475;52.192;5.396;2022-08-04T09:17:32;2.95;;;1.17;;
74124;SDS011;62475;52.192;5.396;2022-08-04T09:22:42;3.97;;;1.55;;
74124;SDS011;62475;52.192;5.396;2022-08-04T09:25:19;4.05;;;1.30;;
74124;SDS011;62475;52.192;5.396;2022-08-04T09:27:53;2.58;;;1.02;;
74124;SDS011;62475;52.192;5.396;2022-08-04T09:30:31;2.95;;;1.17;;
74124;SDS011;62475;52.192;5.396;2022-08-04T09:36:23;2.92;;;1.60;;
74124;SDS011;62475;52.192;5.396;2022-08-04T09:39:00;2.25;;;1.10;;
74124;SDS011;62475;52.192;5.396;2022-08-04T09:41:40;4.20;;;1.42;;
74124;SDS011;62475;52.192;5.396;2022-08-04T09:49:35;2.72;;;1.20;;
74124;SDS011;62475;52.192;5.396;2022-08-04T09:52:16;4.57;;;1.27;;
74124;SDS011;62475;52.192;5.396;2022-08-04T09:54:48;3.75;;;1.20;;
74124;SDS011;62475;52.192;5.396;2022-08-04T10:00:16;4.07;;;1.70;;
74124;SDS011;62475;52.192;5.396;2022-08-04T10:02:54;4.15;;;1.40;;
74124;SDS011;62475;52.192;5.396;2022-08-04T10:05:24;3.03;;;1.40;;
74124;SDS011;62475;52.192;5.396;2022-08-04T10:07:56;5.10;;;1.48;;
74124;SDS011;62475;52.192;5.396;2022-08-04T10:10:40;4.00;;;1.40;;
74124;SDS011;62475;52.192;5.396;2022-08-04T10:13:15;4.18;;;1.60;;
74124;SDS011;62475;52.192;5.396;2022-08-04T10:15:48;4.22;;;1.60;;
74124;SDS011;62475;52.192;5.396;2022-08-04T10:21:15;2.58;;;1.42;;
74124;SDS011;62475;52.192;5.396;2022-08-04T10:29:26;4.85;;;1.58;;
74124;SDS011;62475;52.192;5.396;2022-08-04T10:32:09;3.08;;;1.30;;
74124;SDS011;62475;52.192;5.396;2022-08-04T10:34:38;3.22;;;1.30;;
74124;SDS011;62475;52.192;5.396;2022-08-04T10:42:55;3.92;;;1.17;;
74124;SDS011;62475;52.192;5.396;2022-08-04T10:45:25;4.22;;;1.50;;
74124;SDS011;62475;52.192;5.396;2022-08-04T10:48:10;3.08;;;1.48;;
74124;SDS011;62475;52.192;5.396;2022-08-04T10:51:09;3.03;;;1.52;;
74124;SDS011;62475;52.192;5.396;2022-08-04T10:53:42;4.40;;;1.60;;
74124;SDS011;62475;52.192;5.396;2022-08-04T10:56:14;4.82;;;1.40;;
74124;SDS011;62475;52.192;5.396;2022-08-04T10:58:48;4.97;;;1.63;;
74124;SDS011;62475;52.192;5.396;2022-08-04T11:01:28;3.15;;;1.50;;
74124;SDS011;62475;52.192;5.396;2022-08-04T11:04:00;3.47;;;1.50;;
74124;SDS011;62475;52.192;5.396;2022-08-04T11:06:32;3.28;;;1.60;;
74124;SDS011;62475;52.192;5.396;2022-08-04T11:09:00;4.50;;;1.48;;
74124;SDS011;62475;52.192;5.396;2022-08-04T11:11:42;3.47;;;1.42;;
74124;SDS011;62475;52.192;5.396;2022-08-04T11:14:21;2.83;;;1.27;;
74124;SDS011;62475;52.192;5.396;2022-08-04T11:17:05;3.90;;;1.83;;
74124;SDS011;62475;52.192;5.396;2022-08-04T11:19:43;3.42;;;1.45;;
74124;SDS011;62475;52.192;5.396;2022-08-04T11:22:14;3.65;;;1.52;;
74124;SDS011;62475;52.192;5.396;2022-08-04T11:27:19;2.45;;;1.30;;
74124;SDS011;62475;52.192;5.396;2022-08-04T11:35:37;2.88;;;1.15;;
74124;SDS011;62475;52.192;5.396;2022-08-04T11:38:28;2.25;;;1.10;;
74124;SDS011;62475;52.192;5.396;2022-08-04T11:41:03;2.72;;;1.30;;
74124;SDS011;62475;52.192;5.396;2022-08-04T11:43:47;4.18;;;1.20;;
74124;SDS011;62475;52.192;5.396;2022-08-04T11:46:23;5.13;;;1.20;;
74124;SDS011;62475;52.192;5.396;2022-08-04T11:49:00;3.63;;;1.50;;
74124;SDS011;62475;52.192;5.396;2022-08-04T11:51:44;2.25;;;1.30;;
74124;SDS011;62475;52.192;5.396;2022-08-04T11:54:11;2.55;;;1.15;;
74124;SDS011;62475;52.192;5.396;2022-08-04T11:56:38;2.10;;;1.17;;
74124;SDS011;62475;52.192;5.396;2022-08-04T11:59:04;4.65;;;1.65;;
74124;SDS011;62475;52.192;5.396;2022-08-04T12:07:22;3.80;;;1.30;;
74124;SDS011;62475;52.192;5.396;2022-08-04T12:10:13;4.38;;;1.60;;
74124;SDS011;62475;52.192;5.396;2022-08-04T12:12:53;4.63;;;1.30;;
74124;SDS011;62475;52.192;5.396;2022-08-04T12:15:46;3.42;;;1.33;;
74124;SDS011;62475;52.192;5.396;2022-08-04T12:18:24;3.45;;;1.25;;
74124;SDS011;62475;52.192;5.396;2022-08-04T12:20:58;2.42;;;1.13;;
74124;SDS011;62475;52.192;5.396;2022-08-04T12:23:28;3.47;;;1.38;;
74124;SDS011;62475;52.192;5.396;2022-08-04T12:25:57;2.70;;;1.27;;
74124;SDS011;62475;52.192;5.396;2022-08-04T12:28:40;5.30;;;1.33;;
74124;SDS011;62475;52.192;5.396;2022-08-04T12:31:22;6.25;;;1.77;;
74124;SDS011;62475;52.192;5.396;2022-08-04T12:36:21;3.67;;;1.25;;
74124;SDS011;62475;52.192;5.396;2022-08-04T12:38:58;2.58;;;1.02;;
74124;SDS011;62475;52.192;5.396;2022-08-04T12:41:33;3.22;;;1.20;;
74124;SDS011;62475;52.192;5.396;2022-08-04T12:44:03;4.32;;;1.65;;
74124;SDS011;62475;52.192;5.396;2022-08-04T12:46:31;3.97;;;1.50;;
74124;SDS011;62475;52.192;5.396;2022-08-04T12:49:01;2.95;;;1.35;;
74124;SDS011;62475;52.192;5.396;2022-08-04T12:51:28;5.28;;;1.33;;
74124;SDS011;62475;52.192;5.396;2022-08-04T12:54:01;4.10;;;1.60;;
74124;SDS011;62475;52.192;5.396;2022-08-04T12:56:28;2.40;;;1.20;;
74124;SDS011;62475;52.192;5.396;2022-08-04T12:58:59;3.03;;;1.50;;
74124;SDS011;62475;52.192;5.396;2022-08-04T13:01:27;3.33;;;1.30;;
74124;SDS011;62475;52.192;5.396;2022-08-04T13:04:02;3.80;;;1.52;;
74124;SDS011;62475;52.192;5.396;2022-08-04T13:06:35;3.35;;;1.77;;
74124;SDS011;62475;52.192;5.396;2022-08-04T13:09:06;5.57;;;1.75;;
74124;SDS011;62475;52.192;5.396;2022-08-04T13:11:39;6.05;;;1.58;;
74124;SDS011;62475;52.192;5.396;2022-08-04T13:14:06;2.60;;;1.63;;
74124;SDS011;62475;52.192;5.396;2022-08-04T13:16:34;2.72;;;1.50;;
74124;SDS011;62475;52.192;5.396;2022-08-04T13:18:59;4.47;;;1.50;;
74124;SDS011;62475;52.192;5.396;2022-08-04T13:21:27;4.07;;;1.60;;
74124;SDS011;62475;52.192;5.396;2022-08-04T13:23:55;3.67;;;1.90;;
74124;SDS011;62475;52.192;5.396;2022-08-04T13:26:22;2.47;;;1.35;;
74124;SDS011;62475;52.192;5.396;2022-08-04T13:28:50;3.67;;;1.77;;
74124;SDS011;62475;52.192;5.396;2022-08-04T13:31:21;3.25;;;1.50;;
74124;SDS011;62475;52.192;5.396;2022-08-04T13:33:51;8.77;;;1.55;;
74124;SDS011;62475;52.192;5.396;2022-08-04T13:36:23;3.55;;;1.17;;
74124;SDS011;62475;52.192;5.396;2022-08-04T13:39:02;3.90;;;1.60;;
74124;SDS011;62475;52.192;5.396;2022-08-04T13:41:31;4.55;;;1.60;;
74124;SDS011;62475;52.192;5.396;2022-08-04T13:44:00;3.17;;;1.60;;
74124;SDS011;62475;52.192;5.396;2022-08-04T13:46:27;1.85;;;1.20;;
74124;SDS011;62475;52.192;5.396;2022-08-04T13:48:56;3.90;;;1.40;;
74124;SDS011;62475;52.192;5.396;2022-08-04T13:51:22;2.75;;;1.40;;
74124;SDS011;62475;52.192;5.396;2022-08-04T13:53:56;4.30;;;1.33;;
74124;SDS011;62475;52.192;5.396;2022-08-04T13:56:23;5.03;;;1.75;;
74124;SDS011;62475;52.192;5.396;2022-08-04T13:58:56;3.70;;;1.75;;
74124;SDS011;62475;52.192;5.396;2022-08-04T14:01:25;4.15;;;1.70;;
74124;SDS011;62475;52.192;5.396;2022-08-04T14:06:36;3.60;;;1.42;;
74124;SDS011;62475;52.192;5.396;2022-08-04T14:09:16;4.25;;;1.63;;
74124;SDS011;62475;52.192;5.396;2022-08-04T14:11:45;5.03;;;1.55;;
74124;SDS011;62475;52.192;5.396;2022-08-04T14:14:24;3.13;;;1.08;;
74124;SDS011;62475;52.192;5.396;2022-08-04T14:19:26;3.80;;;1.48;;
74124;SDS011;62475;52.192;5.396;2022-08-04T14:21:52;4.47;;;1.60;;
74124;SDS011;62475;52.192;5.396;2022-08-04T14:24:21;3.42;;;1.10;;
74124;SDS011;62475;52.192;5.396;2022-08-04T14:26:48;3.65;;;1.30;;
74124;SDS011;62475;52.192;5.396;2022-08-04T14:29:14;1.85;;;1.10;;
74124;SDS011;62475;52.192;5.396;2022-08-04T14:31:40;4.35;;;1.60;;
74124;SDS011;62475;52.192;5.396;2022-08-04T14:34:06;6.13;;;1.55;;
74124;SDS011;62475;52.192;5.396;2022-08-04T14:36:41;4.20;;;1.50;;
74124;SDS011;62475;52.192;5.396;2022-08-04T14:39:07;3.72;;;1.55;;
74124;SDS011;62475;52.192;5.396;2022-08-04T14:41:46;4.05;;;1.17;;
74124;SDS011;62475;52.192;5.396;2022-08-04T14:44:12;5.60;;;1.52;;
74124;SDS011;62475;52.192;5.396;2022-08-04T14:46:59;5.53;;;1.42;;
74124;SDS011;62475;52.192;5.396;2022-08-04T14:49:24;3.30;;;1.40;;
74124;SDS011;62475;52.192;5.396;2022-08-04T14:51:53;2.00;;;1.27;;
74124;SDS011;62475;52.192;5.396;2022-08-04T14:54:31;4.30;;;1.50;;
74124;SDS011;62475;52.192;5.396;2022-08-04T14:57:04;2.63;;;0.98;;
74124;SDS011;62475;52.192;5.396;2022-08-04T14:59:44;3.95;;;1.33;;
74124;SDS011;62475;52.192;5.396;2022-08-04T15:02:12;2.58;;;1.17;;
74124;SDS011;62475;52.192;5.396;2022-08-04T15:04:38;2.92;;;1.20;;
74124;SDS011;62475;52.192;5.396;2022-08-04T15:07:06;2.28;;;1.40;;
74124;SDS011;62475;52.192;5.396;2022-08-04T15:09:32;3.90;;;1.35;;
74124;SDS011;62475;52.192;5.396;2022-08-04T15:11:57;2.33;;;1.30;;
74124;SDS011;62475;52.192;5.396;2022-08-04T15:14:23;4.47;;;1.58;;
74124;SDS011;62475;52.192;5.396;2022-08-04T15:16:49;5.68;;;2.17;;
74124;SDS011;62475;52.192;5.396;2022-08-04T15:19:15;4.72;;;1.50;;
74124;SDS011;62475;52.192;5.396;2022-08-04T15:21:40;3.05;;;1.30;;
74124;SDS011;62475;52.192;5.396;2022-08-04T15:24:05;3.20;;;1.20;;
74124;SDS011;62475;52.192;5.396;2022-08-04T15:26:34;4.68;;;1.35;;
74124;SDS011;62475;52.192;5.396;2022-08-04T15:29:08;2.55;;;1.20;;
74124;SDS011;62475;52.192;5.396;2022-08-04T15:31:37;3.05;;;1.35;;
74124;SDS011;62475;52.192;5.396;2022-08-04T15:34:05;3.33;;;1.25;;
74124;SDS011;62475;52.192;5.396;2022-08-04T15:39:11;2.70;;;1.02;;
74124;SDS011;62475;52.192;5.396;2022-08-04T15:47:15;4.28;;;1.17;;
74124;SDS011;62475;52.192;5.396;2022-08-04T15:49:41;4.60;;;1.08;;
74124;SDS011;62475;52.192;5.396;2022-08-04T15:52:13;4.63;;;0.90;;
74124;SDS011;62475;52.192;5.396;2022-08-04T15:54:42;3.55;;;1.10;;
74124;SDS011;62475;52.192;5.396;2022-08-04T15:57:08;1.48;;;1.02;;
74124;SDS011;62475;52.192;5.396;2022-08-04T16:05:41;3.17;;;1.30;;
74124;SDS011;62475;52.192;5.396;2022-08-04T16:07:55;3.53;;;1.38;;
74124;SDS011;62475;52.192;5.396;2022-08-04T16:10:38;5.00;;;1.25;;
74124;SDS011;62475;52.192;5.396;2022-08-04T16:13:09;3.90;;;1.23;;
74124;SDS011;62475;52.192;5.396;2022-08-04T16:15:40;4.97;;;1.42;;
74124;SDS011;62475;52.192;5.396;2022-08-04T16:18:08;1.83;;;1.27;;
74124;SDS011;62475;52.192;5.396;2022-08-04T16:20:35;3.95;;;1.58;;
74124;SDS011;62475;52.192;5.396;2022-08-04T16:23:54;5.07;;;1.60;;
74124;SDS011;62475;52.192;5.396;2022-08-04T16:26:05;2.55;;;1.23;;
74124;SDS011;62475;52.192;5.396;2022-08-04T16:31:02;2.88;;;0.95;;
74124;SDS011;62475;52.192;5.396;2022-08-04T16:33:32;4.68;;;1.38;;
74124;SDS011;62475;52.192;5.396;2022-08-04T16:35:59;2.13;;;1.05;;
74124;SDS011;62475;52.192;5.396;2022-08-04T16:38:25;3.67;;;1.40;;
74124;SDS011;62475;52.192;5.396;2022-08-04T16:40:57;3.90;;;1.40;;
74124;SDS011;62475;52.192;5.396;2022-08-04T16:43:27;3.45;;;1.08;;
74124;SDS011;62475;52.192;5.396;2022-08-04T16:48:27;4.28;;;1.33;;
74124;SDS011;62475;52.192;5.396;2022-08-04T16:53:21;3.50;;;1.15;;
74124;SDS011;62475;52.192;5.396;2022-08-04T16:55:49;2.28;;;1.10;;
74124;SDS011;62475;52.192;5.396;2022-08-04T16:58:16;3.10;;;1.10;;
74124;SDS011;62475;52.192;5.396;2022-08-04T17:00:49;4.50;;;1.02;;
74124;SDS011;62475;52.192;5.396;2022-08-04T17:03:14;3.20;;;1.17;;
74124;SDS011;62475;52.192;5.396;2022-08-04T17:05:40;2.85;;;0.95;;
74124;SDS011;62475;52.192;5.396;2022-08-04T17:08:06;3.17;;;1.00;;
74124;SDS011;62475;52.192;5.396;2022-08-04T17:10:34;4.32;;;1.20;;
74124;SDS011;62475;52.192;5.396;2022-08-04T17:13:23;3.63;;;1.05;;
74124;SDS011;62475;52.192;5.396;2022-08-04T17:15:54;4.38;;;1.17;;
74124;SDS011;62475;52.192;5.396;2022-08-04T17:18:28;2.55;;;1.20;;
74124;SDS011;62475;52.192;5.396;2022-08-04T17:21:03;3.55;;;1.17;;
74124;SDS011;62475;52.192;5.396;2022-08-04T17:23:34;2.80;;;1.10;;
74124;SDS011;62475;52.192;5.396;2022-08-04T17:28:31;2.58;;;1.27;;
74124;SDS011;62475;52.192;5.396;2022-08-04T17:30:58;2.33;;;1.00;;
74124;SDS011;62475;52.192;5.396;2022-08-04T17:33:25;3.00;;;1.35;;
74124;SDS011;62475;52.192;5.396;2022-08-04T17:35:51;4.28;;;1.10;;
74124;SDS011;62475;52.192;5.396;2022-08-04T17:38:19;2.45;;;1.00;;
74124;SDS011;62475;52.192;5.396;2022-08-04T17:40:51;3.88;;;1.40;;
74124;SDS011;62475;52.192;5.396;2022-08-04T17:43:19;1.90;;;1.00;;
74124;SDS011;62475;52.192;5.396;2022-08-04T17:45:45;4.53;;;1.45;;
74124;SDS011;62475;52.192;5.396;2022-08-04T17:48:19;6.60;;;1.30;;
74124;SDS011;62475;52.192;5.396;2022-08-04T17:50:46;3.47;;;1.75;;
74124;SDS011;62475;52.192;5.396;2022-08-04T17:53:12;2.45;;;1.17;;
74124;SDS011;62475;52.192;5.396;2022-08-04T17:55:41;2.05;;;0.90;;
74124;SDS011;62475;52.192;5.396;2022-08-04T17:58:18;4.88;;;1.10;;
74124;SDS011;62475;52.192;5.396;2022-08-04T18:00:47;3.33;;;1.00;;
74124;SDS011;62475;52.192;5.396;2022-08-04T18:03:23;6.00;;;1.38;;
74124;SDS011;62475;52.192;5.396;2022-08-04T18:05:49;3.42;;;1.30;;
74124;SDS011;62475;52.192;5.396;2022-08-04T18:08:21;3.20;;;1.20;;
74124;SDS011;62475;52.192;5.396;2022-08-04T18:10:48;2.78;;;1.13;;
74124;SDS011;62475;52.192;5.396;2022-08-04T18:13:13;2.30;;;1.00;;
74124;SDS011;62475;52.192;5.396;2022-08-04T18:15:39;2.25;;;1.33;;
74124;SDS011;62475;52.192;5.396;2022-08-04T18:18:14;2.95;;;1.30;;
74124;SDS011;62475;52.192;5.396;2022-08-04T18:20:41;5.00;;;1.40;;
74124;SDS011;62475;52.192;5.396;2022-08-04T18:23:08;2.60;;;1.20;;
74124;SDS011;62475;52.192;5.396;2022-08-04T18:28:03;3.25;;;1.08;;
74124;SDS011;62475;52.192;5.396;2022-08-04T18:30:32;3.15;;;1.25;;
74124;SDS011;62475;52.192;5.396;2022-08-04T18:32:58;2.58;;;0.95;;
74124;SDS011;62475;52.192;5.396;2022-08-04T18:35:23;6.28;;;1.45;;
74124;SDS011;62475;52.192;5.396;2022-08-04T18:37:49;4.10;;;1.20;;
74124;SDS011;62475;52.192;5.396;2022-08-04T18:40:17;5.65;;;1.48;;
74124;SDS011;62475;52.192;5.396;2022-08-04T18:42:44;2.08;;;1.30;;
74124;SDS011;62475;52.192;5.396;2022-08-04T18:45:10;3.10;;;1.70;;
74124;SDS011;62475;52.192;5.396;2022-08-04T18:47:37;2.47;;;1.20;;
74124;SDS011;62475;52.192;5.396;2022-08-04T18:50:05;4.35;;;1.10;;
74124;SDS011;62475;52.192;5.396;2022-08-04T18:52:31;9.27;;;1.60;;
74124;SDS011;62475;52.192;5.396;2022-08-04T18:54:56;2.95;;;1.55;;
74124;SDS011;62475;52.192;5.396;2022-08-04T18:57:22;3.47;;;1.13;;
74124;SDS011;62475;52.192;5.396;2022-08-04T18:59:49;5.00;;;1.67;;
74124;SDS011;62475;52.192;5.396;2022-08-04T19:02:15;4.22;;;1.48;;
74124;SDS011;62475;52.192;5.396;2022-08-04T19:04:41;3.13;;;1.40;;
74124;SDS011;62475;52.192;5.396;2022-08-04T19:07:07;4.07;;;1.48;;